createdAt,value
2022-11-23T00:01:35.367Z,7.71
2022-11-23T00:04:05.607Z,7.70
2022-11-23T00:06:33.861Z,7.48
2022-11-23T00:09:01.795Z,7.56
2022-11-23T00:11:31.731Z,7.52
2022-11-23T00:13:59.693Z,7.51
2022-11-23T00:16:29.356Z,7.42
2022-11-23T00:19:00.089Z,7.41
2022-11-23T00:21:30.554Z,7.31
2022-11-23T00:23:58.526Z,7.28
2022-11-23T00:26:26.536Z,7.24
2022-11-23T00:28:56.178Z,7.28
2022-11-23T00:31:28.080Z,7.29
2022-11-23T00:33:57.365Z,7.19
2022-11-23T00:36:27.385Z,7.23
2022-11-23T00:38:56.256Z,7.12
2022-11-23T00:41:26.322Z,7.02
2022-11-23T00:43:55.684Z,7.01
2022-11-23T00:46:25.098Z,6.96
2022-11-23T00:48:55.141Z,6.96
2022-11-23T00:51:24.811Z,6.88
2022-11-23T00:53:53.370Z,6.85
2022-11-23T00:56:22.114Z,6.83
2022-11-23T00:58:50.647Z,6.68
2022-11-23T01:01:22.147Z,6.59
2022-11-23T01:03:52.162Z,6.67
2022-11-23T01:06:22.641Z,6.60
2022-11-23T01:08:52.459Z,6.52
2022-11-23T01:11:21.623Z,6.65
2022-11-23T01:13:49.833Z,6.66
2022-11-23T01:16:24.102Z,6.74
2022-11-23T01:18:54.373Z,6.66
2022-11-23T01:21:24.914Z,6.81
2022-11-23T01:23:53.485Z,6.80
2022-11-23T01:26:21.809Z,6.88
2022-11-23T01:28:50.757Z,6.81
2022-11-23T01:31:21.861Z,6.92
2022-11-23T01:33:53.946Z,6.78
2022-11-23T01:36:23.720Z,7.04
2022-11-23T01:38:53.111Z,7.12
2022-11-23T01:41:24.506Z,7.10
2022-11-23T01:43:52.755Z,7.05
2022-11-23T01:46:22.713Z,7.05
2022-11-23T01:48:56.469Z,7.03
2022-11-23T01:51:28.619Z,7.14
2022-11-23T01:54:01.523Z,7.11
2022-11-23T01:56:32.075Z,7.23
2022-11-23T01:59:03.697Z,7.21
2022-11-23T02:01:33.273Z,7.32
2022-11-23T02:04:02.900Z,7.30
2022-11-23T02:06:32.731Z,7.28
2022-11-23T02:09:03.696Z,7.26
2022-11-23T02:11:31.839Z,7.24
2022-11-23T02:14:00.517Z,7.26
2022-11-23T02:16:31.853Z,7.27
2022-11-23T02:19:01.175Z,7.27
2022-11-23T02:21:29.344Z,7.43
2022-11-23T02:24:02.690Z,7.38
2022-11-23T02:26:35.025Z,7.36
2022-11-23T02:29:09.652Z,7.43
2022-11-23T02:31:37.847Z,7.37
2022-11-23T02:34:05.788Z,7.43
2022-11-23T02:36:40.398Z,7.52
2022-11-23T02:39:12.476Z,7.43
2022-11-23T02:41:45.212Z,7.49
2022-11-23T02:44:31.219Z,7.44
2022-11-23T02:46:59.609Z,7.36
2022-11-23T02:49:27.617Z,7.29
2022-11-23T02:51:55.523Z,7.36
2022-11-23T02:54:27.427Z,7.40
2022-11-23T02:56:56.764Z,7.30
2022-11-23T02:59:24.854Z,7.40
2022-11-23T03:01:54.194Z,7.37
2022-11-23T03:04:27.680Z,7.37
2022-11-23T03:06:56.400Z,7.45
2022-11-23T03:09:26.141Z,7.35
2022-11-23T03:11:56.134Z,7.44
2022-11-23T03:14:25.840Z,7.40
2022-11-23T03:16:59.418Z,7.38
2022-11-23T03:19:27.981Z,7.39
2022-11-23T03:21:55.918Z,7.53
2022-11-23T03:24:23.868Z,7.49
2022-11-23T03:26:53.628Z,7.51
2022-11-23T03:29:26.306Z,7.45
2022-11-23T03:31:56.327Z,7.37
2022-11-23T03:34:25.435Z,7.46
2022-11-23T03:36:53.384Z,7.50
2022-11-23T03:39:21.942Z,7.53
2022-11-23T03:42:08.369Z,7.56
2022-11-23T03:44:38.311Z,7.55
2022-11-23T03:47:06.627Z,7.51
2022-11-23T03:49:36.461Z,7.50
2022-11-23T03:52:04.867Z,7.33
2022-11-23T03:54:32.915Z,7.59
2022-11-23T03:57:01.527Z,7.57
2022-11-23T03:59:29.818Z,7.53
2022-11-23T04:01:59.556Z,7.53
2022-11-23T04:04:30.939Z,7.59
2022-11-23T04:07:19.213Z,7.44
2022-11-23T04:09:51.856Z,7.33
2022-11-23T04:12:27.383Z,7.45
2022-11-23T04:14:55.381Z,7.43
2022-11-23T04:17:24.722Z,7.37
2022-11-23T04:19:53.456Z,7.33
2022-11-23T04:22:21.393Z,7.31
2022-11-23T04:24:49.391Z,7.27
2022-11-23T04:27:17.272Z,7.31
2022-11-23T04:29:45.259Z,7.15
2022-11-23T04:32:13.209Z,7.17
2022-11-23T04:34:42.658Z,7.18
2022-11-23T04:37:14.224Z,7.11
2022-11-23T04:39:44.897Z,7.14
2022-11-23T04:42:27.383Z,7.08
2022-11-23T04:44:59.211Z,7.00
2022-11-23T04:47:27.675Z,7.04
2022-11-23T04:50:00.684Z,7.01
2022-11-23T04:52:29.342Z,7.01
2022-11-23T04:54:58.006Z,6.95
2022-11-23T04:57:26.059Z,6.98
2022-11-23T04:59:54.076Z,6.83
2022-11-23T05:02:25.119Z,6.92
2022-11-23T05:05:14.629Z,6.83
2022-11-23T05:07:42.830Z,6.74
2022-11-23T05:10:11.606Z,6.82
2022-11-23T05:12:40.321Z,6.74
2022-11-23T05:15:11.723Z,6.83
2022-11-23T05:17:40.126Z,6.88
2022-11-23T05:20:15.572Z,6.94
2022-11-23T05:22:48.439Z,6.94
2022-11-23T05:25:20.477Z,6.89
2022-11-23T05:27:55.497Z,6.89
2022-11-23T05:30:23.699Z,6.85
2022-11-23T05:32:51.820Z,6.77
2022-11-23T05:35:22.479Z,6.82
2022-11-23T05:37:50.418Z,6.84
2022-11-23T05:40:18.459Z,6.89
2022-11-23T05:42:48.056Z,6.83
2022-11-23T05:45:21.076Z,6.72
2022-11-23T05:47:53.547Z,6.78
2022-11-23T05:50:31.324Z,6.87
2022-11-23T05:53:17.622Z,6.93
2022-11-23T05:55:49.107Z,6.97
2022-11-23T05:58:18.120Z,7.02
2022-11-23T06:00:46.116Z,7.03
2022-11-23T06:03:15.608Z,7.05
2022-11-23T06:05:47.628Z,7.06
2022-11-23T06:08:15.737Z,7.10
2022-11-23T06:10:43.771Z,7.11
2022-11-23T06:13:12.880Z,7.12
2022-11-23T06:15:40.816Z,7.21
2022-11-23T06:18:10.391Z,7.20
2022-11-23T06:20:47.304Z,7.21
2022-11-23T06:23:15.252Z,7.05
2022-11-23T06:25:43.420Z,7.20
2022-11-23T06:28:16.693Z,7.19
2022-11-23T06:30:47.760Z,7.22
2022-11-23T06:33:18.648Z,7.18
2022-11-23T06:35:58.659Z,7.29
2022-11-23T06:38:31.199Z,7.34
2022-11-23T06:41:03.882Z,7.36
2022-11-23T06:43:32.868Z,7.33
2022-11-23T06:46:05.300Z,7.31
2022-11-23T06:48:34.609Z,7.21
2022-11-23T06:51:04.460Z,7.13
2022-11-23T06:53:32.844Z,6.96
2022-11-23T06:56:05.446Z,6.95
2022-11-23T06:58:33.999Z,6.89
2022-11-23T07:01:06.470Z,6.81
2022-11-23T07:03:40.575Z,6.92
2022-11-23T07:06:21.738Z,6.80
2022-11-23T07:08:52.295Z,6.92
2022-11-23T07:11:28.656Z,6.84
2022-11-23T07:13:56.630Z,6.75
2022-11-23T07:16:27.864Z,6.69
2022-11-23T07:18:56.052Z,6.60
2022-11-23T07:21:25.367Z,6.63
2022-11-23T07:23:53.317Z,6.63
2022-11-23T07:26:21.429Z,6.60
2022-11-23T07:28:49.395Z,6.89
2022-11-23T07:31:17.739Z,6.98
2022-11-23T07:33:46.193Z,7.00
2022-11-23T07:36:14.608Z,7.12
2022-11-23T07:38:45.591Z,7.32
2022-11-23T07:41:16.016Z,7.39
2022-11-23T07:44:07.285Z,7.59
2022-11-23T07:46:35.257Z,7.71
2022-11-23T07:49:03.363Z,7.75
2022-11-23T07:51:31.449Z,7.75
2022-11-23T07:54:00.853Z,7.96
2022-11-23T07:56:28.805Z,7.97
2022-11-23T07:58:56.750Z,8.03
2022-11-23T08:01:24.654Z,8.03
2022-11-23T08:03:52.605Z,7.98
2022-11-23T08:06:20.579Z,8.04
2022-11-23T08:09:05.032Z,8.12
2022-11-23T08:11:33.074Z,8.17
2022-11-23T08:14:01.031Z,8.38
2022-11-23T08:16:28.952Z,8.29
2022-11-23T08:18:57.024Z,8.39
2022-11-23T08:21:24.934Z,8.41
2022-11-23T08:23:52.929Z,8.32
2022-11-23T08:26:22.244Z,8.62
2022-11-23T08:28:50.232Z,8.61
2022-11-23T08:31:18.172Z,8.59
2022-11-23T08:33:46.094Z,8.78
2022-11-23T08:36:14.331Z,8.94
2022-11-23T08:38:42.393Z,8.98
2022-11-23T08:41:10.485Z,9.00
2022-11-23T08:43:39.912Z,9.24
2022-11-23T08:46:11.112Z,9.25
2022-11-23T08:48:39.379Z,9.22
2022-11-23T08:51:08.035Z,9.21
2022-11-23T08:53:35.941Z,9.27
2022-11-23T08:56:04.617Z,9.23
2022-11-23T08:58:32.948Z,9.31
2022-11-23T09:01:02.289Z,9.18
2022-11-23T09:03:31.116Z,9.40
2022-11-23T09:06:01.285Z,9.38
2022-11-23T09:08:29.933Z,9.32
2022-11-23T09:11:01.006Z,9.44
2022-11-23T09:13:29.254Z,9.48
2022-11-23T09:16:02.393Z,9.57
2022-11-23T09:18:31.605Z,9.35
2022-11-23T09:21:04.346Z,9.54
2022-11-23T09:23:35.027Z,9.51
2022-11-23T09:26:04.545Z,9.78
2022-11-23T09:28:33.737Z,9.86
2022-11-23T09:31:05.701Z,9.92
2022-11-23T09:33:36.171Z,9.92
2022-11-23T09:36:05.554Z,10.15
2022-11-23T09:38:55.068Z,10.21
2022-11-23T09:41:39.249Z,10.29
2022-11-23T09:44:12.271Z,10.28
2022-11-23T09:46:50.093Z,10.52
2022-11-23T09:49:20.009Z,10.57
2022-11-23T09:51:50.434Z,10.77
2022-11-23T09:54:27.589Z,10.85
2022-11-23T09:57:01.621Z,10.97
2022-11-23T09:59:40.814Z,10.83
2022-11-23T10:02:20.718Z,10.99
2022-11-23T10:04:49.228Z,10.92
2022-11-23T10:07:32.878Z,11.13
2022-11-23T10:10:11.150Z,11.32
2022-11-23T10:12:48.783Z,11.55
2022-11-23T10:15:25.312Z,11.67
2022-11-23T10:18:16.993Z,11.58
2022-11-23T10:20:51.244Z,11.86
2022-11-23T10:23:28.456Z,12.00
2022-11-23T10:25:57.102Z,12.33
2022-11-23T10:28:25.187Z,12.19
2022-11-23T10:31:01.859Z,12.74
2022-11-23T10:33:34.132Z,13.11
2022-11-23T10:36:02.157Z,13.88
2022-11-23T10:38:30.294Z,14.25
2022-11-23T10:41:03.385Z,13.53
2022-11-23T10:43:36.232Z,13.33
2022-11-23T10:46:27.902Z,12.96
2022-11-23T10:49:09.200Z,12.56
2022-11-23T10:51:38.554Z,12.49
2022-11-23T10:54:10.421Z,11.98
2022-11-23T10:56:47.961Z,11.95
2022-11-23T10:59:28.908Z,12.24
2022-11-23T11:02:15.825Z,12.25
2022-11-23T11:04:45.668Z,12.12
2022-11-23T11:07:24.057Z,11.88
2022-11-23T11:09:55.012Z,12.01
2022-11-23T11:12:23.428Z,11.80
2022-11-23T11:15:15.541Z,11.68
2022-11-23T11:17:43.957Z,11.88
2022-11-23T11:20:40.593Z,11.66
2022-11-23T11:23:21.054Z,11.81
2022-11-23T11:25:52.321Z,11.86
2022-11-23T11:28:25.038Z,12.00
2022-11-23T11:31:05.046Z,12.06
2022-11-23T11:33:41.991Z,13.08
2022-11-23T11:36:17.354Z,13.09
2022-11-23T11:39:14.919Z,12.65
2022-11-23T11:41:39.692Z,12.39
2022-11-23T11:44:11.054Z,12.48
2022-11-23T11:46:41.695Z,12.42
2022-11-23T11:49:16.589Z,12.25
2022-11-23T11:51:49.844Z,12.58
2022-11-23T11:54:26.957Z,13.24
2022-11-23T11:56:58.846Z,13.67
2022-11-23T11:59:31.371Z,14.00
2022-11-23T12:02:15.804Z,14.13
2022-11-23T12:04:49.207Z,13.53
2022-11-23T12:07:23.046Z,12.94
2022-11-23T12:09:55.690Z,12.53
2022-11-23T12:12:29.487Z,12.72
2022-11-23T12:14:58.208Z,12.88
2022-11-23T12:17:55.925Z,13.01
2022-11-23T12:20:32.099Z,13.13
2022-11-23T12:23:16.048Z,13.09
2022-11-23T12:25:52.718Z,12.77
2022-11-23T12:28:43.060Z,12.78
2022-11-23T12:31:19.247Z,12.44
2022-11-23T12:34:07.647Z,12.40
2022-11-23T12:36:52.118Z,12.36
2022-11-23T12:39:42.406Z,12.39
2022-11-23T12:42:17.246Z,12.56
2022-11-23T12:45:01.847Z,12.40
2022-11-23T12:47:42.747Z,12.19
2022-11-23T12:50:21.515Z,12.22
2022-11-23T12:53:09.782Z,12.23
2022-11-23T12:55:53.981Z,12.05
2022-11-23T12:58:27.127Z,11.83
2022-11-23T13:01:00.151Z,12.20
2022-11-23T13:04:10.645Z,12.04
2022-11-23T13:10:29.438Z,12.44
2022-11-23T13:13:18.734Z,12.36
2022-11-23T13:19:11.307Z,11.94
2022-11-23T13:21:43.513Z,11.56
2022-11-23T13:24:31.567Z,11.41
2022-11-23T13:27:33.955Z,11.33
2022-11-23T13:30:11.635Z,11.25
2022-11-23T13:32:56.317Z,11.25
2022-11-23T13:35:49.962Z,11.38
2022-11-23T13:38:38.186Z,11.69
2022-11-23T13:41:55.582Z,11.95
2022-11-23T13:44:26.788Z,11.95
2022-11-23T13:47:01.706Z,11.77
2022-11-23T13:49:41.696Z,11.77
2022-11-23T13:52:31.712Z,11.68
2022-11-23T13:55:09.807Z,11.63
2022-11-23T13:57:39.504Z,11.59
2022-11-23T14:00:44.921Z,11.62
2022-11-23T14:03:52.531Z,11.43
2022-11-23T14:06:28.172Z,11.27
2022-11-23T14:09:05.460Z,11.14
2022-11-23T14:11:40.856Z,11.28
2022-11-23T14:14:19.840Z,11.10
2022-11-23T14:17:09.342Z,10.96
2022-11-23T14:19:50.197Z,11.01
2022-11-23T14:22:25.911Z,10.91
2022-11-23T14:25:17.863Z,10.88
2022-11-23T14:27:57.808Z,10.71
2022-11-23T14:30:44.295Z,10.72
2022-11-23T14:33:25.442Z,10.69
2022-11-23T14:36:14.490Z,10.61
2022-11-23T14:39:10.952Z,10.48
2022-11-23T14:41:42.258Z,10.37
2022-11-23T14:44:14.817Z,10.25
2022-11-23T14:47:00.869Z,10.17
2022-11-23T14:49:29.229Z,10.21
2022-11-23T14:51:59.174Z,10.29
2022-11-23T14:54:30.168Z,10.17
2022-11-23T14:57:00.979Z,10.16
2022-11-23T14:59:32.455Z,10.03
2022-11-23T15:02:03.833Z,9.96
2022-11-23T15:04:36.932Z,10.02
2022-11-23T15:07:13.955Z,9.86
2022-11-23T15:09:49.767Z,9.82
2022-11-23T15:12:23.437Z,9.74
2022-11-23T15:14:51.886Z,9.81
2022-11-23T15:17:21.830Z,9.67
2022-11-23T15:19:58.347Z,9.69
2022-11-23T15:22:28.479Z,9.59
2022-11-23T15:25:08.123Z,9.64
2022-11-23T15:27:41.156Z,9.55
2022-11-23T15:30:16.445Z,9.44
2022-11-23T15:32:44.717Z,9.43
2022-11-23T15:35:15.525Z,9.44
2022-11-23T15:37:48.495Z,9.36
2022-11-23T15:40:19.542Z,9.33
2022-11-23T15:42:50.949Z,9.28
2022-11-23T15:45:38.672Z,9.09
2022-11-23T15:48:13.072Z,9.11
2022-11-23T15:50:49.244Z,9.05
2022-11-23T15:53:18.960Z,9.00
2022-11-23T15:55:47.623Z,8.85
2022-11-23T15:58:18.718Z,8.79
2022-11-23T16:00:51.452Z,8.68
2022-11-23T16:03:34.026Z,8.56
2022-11-23T16:06:36.222Z,8.46
2022-11-23T16:09:49.234Z,8.47
2022-11-23T16:12:33.610Z,8.32
2022-11-23T16:15:32.484Z,8.17
2022-11-23T16:18:01.228Z,8.04
2022-11-23T16:20:30.473Z,8.04
2022-11-23T16:23:01.305Z,8.04
2022-11-23T16:25:33.092Z,7.93
2022-11-23T16:28:02.509Z,7.96
2022-11-23T16:30:39.070Z,7.97
2022-11-23T16:33:07.730Z,7.86
2022-11-23T16:35:35.681Z,7.83
2022-11-23T16:38:03.738Z,7.72
2022-11-23T16:40:33.587Z,7.71
2022-11-23T16:43:01.627Z,7.69
2022-11-23T16:45:29.649Z,7.65
2022-11-23T16:48:00.290Z,7.57
2022-11-23T16:50:30.257Z,7.47
2022-11-23T16:52:58.878Z,7.40
2022-11-23T16:55:26.866Z,7.38
2022-11-23T16:57:56.450Z,7.35
2022-11-23T17:00:25.424Z,7.28
2022-11-23T17:02:53.507Z,7.26
2022-11-23T17:05:23.838Z,7.18
2022-11-23T17:07:51.912Z,7.22
2022-11-23T17:10:20.014Z,7.08
2022-11-23T17:12:51.953Z,7.10
2022-11-23T17:15:23.751Z,7.08
2022-11-23T17:17:52.277Z,7.13
2022-11-23T17:20:20.463Z,7.10
2022-11-23T17:22:51.506Z,7.11
2022-11-23T17:25:19.711Z,7.14
2022-11-23T17:27:47.921Z,7.10
2022-11-23T17:30:22.395Z,7.04
2022-11-23T17:32:50.583Z,7.02
2022-11-23T17:35:18.638Z,7.05
2022-11-23T17:37:49.304Z,7.05
2022-11-23T17:40:19.063Z,6.92
2022-11-23T17:42:47.773Z,6.94
2022-11-23T17:45:16.219Z,6.95
2022-11-23T17:47:46.180Z,6.88
2022-11-23T17:50:17.732Z,6.89
2022-11-23T17:52:50.631Z,6.89
2022-11-23T17:55:19.348Z,6.83
2022-11-23T17:57:48.977Z,6.83
2022-11-23T18:00:25.057Z,6.81
2022-11-23T18:02:57.334Z,6.78
2022-11-23T18:05:25.547Z,6.67
2022-11-23T18:07:53.788Z,6.56
2022-11-23T18:10:21.898Z,6.56
2022-11-23T18:12:49.859Z,6.45
2022-11-23T18:15:18.057Z,6.45
2022-11-23T18:17:46.411Z,6.48
2022-11-23T18:20:16.653Z,6.47
2022-11-23T18:22:44.635Z,6.42
2022-11-23T18:25:12.643Z,6.47
2022-11-23T18:27:40.718Z,6.45
2022-11-23T18:30:09.551Z,6.43
2022-11-23T18:32:37.584Z,6.49
2022-11-23T18:35:06.986Z,6.39
2022-11-23T18:37:36.382Z,6.55
2022-11-23T18:40:04.837Z,6.61
2022-11-23T18:42:32.783Z,6.53
2022-11-23T18:45:01.132Z,6.49
2022-11-23T18:47:29.143Z,6.54
2022-11-23T18:49:59.749Z,6.50
2022-11-23T18:52:31.439Z,6.51
2022-11-23T18:55:00.809Z,6.56
2022-11-23T18:57:28.919Z,6.55
2022-11-23T18:59:58.275Z,6.57
2022-11-23T19:02:27.852Z,6.49
2022-11-23T19:04:55.814Z,6.52
2022-11-23T19:07:27.204Z,6.36
2022-11-23T19:09:55.761Z,6.45
2022-11-23T19:12:25.172Z,6.45
2022-11-23T19:14:55.300Z,6.39
2022-11-23T19:17:23.199Z,6.34
2022-11-23T19:19:51.263Z,6.33
2022-11-23T19:22:19.196Z,6.37
2022-11-23T19:24:47.159Z,6.38
2022-11-23T19:27:15.147Z,6.36
2022-11-23T19:29:44.671Z,6.15
2022-11-23T19:32:12.601Z,6.32
2022-11-23T19:34:40.642Z,6.32
2022-11-23T19:37:08.568Z,6.26
2022-11-23T19:39:37.133Z,6.28
2022-11-23T19:42:05.261Z,6.22
2022-11-23T19:44:33.267Z,6.19
2022-11-23T19:47:05.212Z,6.18
2022-11-23T19:49:35.593Z,6.12
2022-11-23T19:52:06.150Z,6.17
2022-11-23T19:54:35.317Z,6.20
2022-11-23T19:57:04.999Z,6.26
2022-11-23T19:59:33.486Z,6.32
2022-11-23T20:02:03.069Z,6.45
2022-11-23T20:04:31.214Z,6.54
2022-11-23T20:06:59.248Z,6.59
2022-11-23T20:09:27.783Z,6.74
2022-11-23T20:11:55.726Z,6.79
2022-11-23T20:14:23.719Z,6.78
2022-11-23T20:16:51.756Z,6.82
2022-11-23T20:19:21.122Z,6.89
2022-11-23T20:21:49.151Z,6.96
2022-11-23T20:24:17.133Z,7.07
2022-11-23T20:26:45.112Z,7.15
2022-11-23T20:29:14.608Z,7.21
2022-11-23T20:31:43.023Z,7.24
2022-11-23T20:34:16.679Z,7.23
2022-11-23T20:36:49.261Z,7.22
2022-11-23T20:39:17.277Z,7.41
2022-11-23T20:41:45.259Z,7.36
2022-11-23T20:44:15.414Z,7.37
2022-11-23T20:49:32.065Z,7.34
2022-11-23T20:52:01.876Z,7.48
2022-11-23T20:54:30.069Z,7.45
2022-11-23T20:57:00.212Z,7.50
2022-11-23T20:59:28.651Z,7.53
2022-11-23T21:01:56.736Z,7.62
2022-11-23T21:04:25.055Z,7.66
2022-11-23T21:06:53.068Z,7.68
2022-11-23T21:09:22.366Z,7.74
2022-11-23T21:12:07.800Z,7.75
2022-11-23T21:14:36.159Z,7.78
2022-11-23T21:17:05.023Z,7.76
2022-11-23T21:19:34.898Z,7.73
2022-11-23T21:22:05.319Z,7.75
2022-11-23T21:24:36.055Z,7.62
2022-11-23T21:27:05.687Z,7.72
2022-11-23T21:29:34.196Z,7.77
2022-11-23T21:32:02.423Z,7.79
2022-11-23T21:34:32.130Z,7.77
2022-11-23T21:37:01.009Z,7.75
2022-11-23T21:39:30.929Z,7.87
2022-11-23T21:42:00.427Z,7.82
2022-11-23T21:44:28.424Z,7.82
2022-11-23T21:46:56.598Z,7.71
2022-11-23T21:49:24.586Z,7.80
2022-11-23T21:51:52.559Z,7.75
2022-11-23T21:54:20.522Z,7.90
2022-11-23T21:56:48.570Z,7.99
2022-11-23T21:59:17.872Z,7.84
2022-11-23T22:01:46.090Z,7.94
2022-11-23T22:04:15.677Z,7.87
2022-11-23T22:06:45.496Z,7.83
2022-11-23T22:09:14.486Z,7.83
2022-11-23T22:11:44.055Z,7.83
2022-11-23T22:14:13.934Z,7.84
2022-11-23T22:16:44.886Z,7.80
2022-11-23T22:19:14.898Z,7.81
2022-11-23T22:21:44.358Z,7.76
2022-11-23T22:24:13.825Z,7.76
2022-11-23T22:26:42.039Z,7.83
2022-11-23T22:29:11.083Z,7.87
2022-11-23T22:31:39.966Z,7.88
2022-11-23T22:34:13.480Z,7.83
2022-11-23T22:36:42.100Z,7.76
2022-11-23T22:39:11.123Z,7.79
2022-11-23T22:41:39.668Z,7.71
2022-11-23T22:44:09.166Z,7.63
2022-11-23T22:46:38.010Z,7.58
2022-11-23T22:49:06.606Z,7.56
2022-11-23T22:51:36.105Z,7.57
2022-11-23T22:54:04.807Z,7.54
2022-11-23T22:56:32.992Z,7.44
2022-11-23T22:59:01.252Z,7.53
2022-11-23T23:01:31.045Z,7.52
2022-11-23T23:04:01.688Z,7.44
2022-11-23T23:06:33.692Z,7.36
2022-11-23T23:09:05.055Z,7.36
2022-11-23T23:11:34.816Z,7.50
2022-11-23T23:14:03.252Z,7.56
2022-11-23T23:16:31.488Z,7.56
2022-11-23T23:19:00.476Z,7.56
2022-11-23T23:21:29.661Z,7.51
2022-11-23T23:24:00.946Z,7.50
2022-11-23T23:26:31.245Z,7.46
2022-11-23T23:29:01.080Z,7.54
2022-11-23T23:31:30.480Z,7.47
2022-11-23T23:34:00.381Z,7.45
2022-11-23T23:36:29.595Z,7.46
2022-11-23T23:38:58.599Z,7.38
2022-11-23T23:41:27.074Z,7.40
2022-11-23T23:43:56.694Z,7.44
2022-11-23T23:46:25.404Z,7.46
2022-11-23T23:48:53.541Z,7.41
2022-11-23T23:51:23.691Z,7.34
2022-11-23T23:53:52.871Z,7.44
2022-11-23T23:56:23.192Z,7.37
2022-11-23T23:58:51.477Z,7.50
